Time;durP1;ratioP1;P1;durP2;ratioP2;P2;SDS_P1;SDS_P2;PMS_P1;PMS_P2;Temp;Humidity;BMP_temperature;BMP_pressure;BME280_temperature;BME280_humidity;BME280_pressure;Samples;Min_cycle;Max_cycle;Signal;HPM_P1;HPM_P2
2022/01/04 00:01:51;;;;;;;;;;;;;;;17.16;71.25;100595.13;5051728;28;2001;-43
2022/01/04 00:04:21;;;;;;;;;;;;;;;17.16;71.62;100591.63;5053827;28;1902;-42
2022/01/04 00:06:57;;;;;;;;;;;;;;;17.09;71.74;100594.81;5051966;28;1680;-43
2022/01/04 00:09:34;;;;;;;;;;;;;;;17.07;71.47;100594.09;5036857;28;1591;-43
2022/01/04 00:15:12;;;;;;;;;;;;;;;17.04;71.75;100625.53;5047724;28;1659;-42
2022/01/04 00:17:42;;;;;;;;;;;;;;;17.00;71.80;100608.91;5046884;28;1745;-43
2022/01/04 00:20:11;;;;;;;;;;;;;;;16.95;72.04;100595.09;5049429;28;1895;-43
2022/01/04 00:22:39;;;;;;;;;;;;;;;16.98;72.54;100610.88;5042885;28;1977;-44
2022/01/04 00:27:53;;;;;;;;;;;;;;;17.01;72.30;100615.97;5049117;28;2279;-43
2022/01/04 00:33:22;;;;;;;;;;;;;;;16.96;72.29;100604.81;5051642;28;1648;-43
2022/01/04 00:35:51;;;;;;;;;;;;;;;16.91;71.81;100599.00;5050659;28;1770;-43
2022/01/04 00:38:18;;;;;;;;;;;;;;;16.94;72.07;100614.75;5050643;28;1584;-43
2022/01/04 00:40:50;;;;;;;;;;;;;;;16.90;72.30;100638.19;5052452;28;1620;-43
2022/01/04 00:43:25;;;;;;;;;;;;;;;16.90;72.71;100632.84;5050058;28;1913;-43
2022/01/04 00:45:53;;;;;;;;;;;;;;;16.88;72.58;100658.00;5048952;28;1428;-43
2022/01/04 00:51:12;;;;;;;;;;;;;;;16.83;72.83;100661.06;5052437;28;1383;-42
2022/01/04 00:53:43;;;;;;;;;;;;;;;16.81;72.77;100660.31;5048584;28;1575;-43
2022/01/04 00:56:23;;;;;;;;;;;;;;;16.82;72.77;100654.00;5052974;28;1536;-43
2022/01/04 00:58:59;;;;;;;;;;;;;;;16.80;72.82;100655.06;5051763;28;1665;-43
2022/01/04 01:01:29;;;;;;;;;;;;;;;16.79;72.96;100661.38;5052087;28;1744;-43
2022/01/04 01:03:59;;;;;;;;;;;;;;;16.76;72.80;100642.94;5051248;28;1985;-43
2022/01/04 01:06:26;;;;;;;;;;;;;;;16.76;72.68;100642.94;5047215;28;1386;-43
2022/01/04 01:09:06;;;;;;;;;;;;;;;16.77;73.23;100645.50;5045183;28;1857;-43
2022/01/04 01:11:38;;;;;;;;;;;;;;;16.74;72.86;100645.72;5053041;28;1311;-42
2022/01/04 01:14:08;;;;;;;;;;;;;;;16.73;72.61;100646.69;5052698;28;1619;-43
2022/01/04 01:16:37;;;;;;;;;;;;;;;16.76;72.79;100645.59;5048268;28;1534;-43
2022/01/04 01:19:06;;;;;;;;;;;;;;;16.73;73.67;100653.84;5050509;28;1656;-42
2022/01/04 01:21:44;;;;;;;;;;;;;;;16.67;73.05;100653.41;5048181;28;1571;-44
2022/01/04 01:24:19;;;;;;;;;;;;;;;16.66;73.00;100651.69;5048385;28;1971;-43
2022/01/04 01:26:53;;;;;;;;;;;;;;;16.66;73.00;100653.50;5042291;28;1577;-43
2022/01/04 01:29:21;;;;;;;;;;;;;;;16.68;72.99;100652.41;5050765;28;1555;-42
2022/01/04 01:31:51;;;;;;;;;;;;;;;16.66;72.91;100638.31;5052440;28;1515;-43
2022/01/04 01:34:27;;;;;;;;;;;;;;;16.65;73.25;100638.44;5050880;28;1515;-43
2022/01/04 01:36:57;;;;;;;;;;;;;;;16.62;72.90;100650.22;5050364;28;1682;-42
2022/01/04 01:39:27;;;;;;;;;;;;;;;16.64;73.31;100629.59;5051405;28;1777;-43
2022/01/04 01:42:04;;;;;;;;;;;;;;;16.64;73.42;100645.63;5050298;28;1696;-42
2022/01/04 01:44:39;;;;;;;;;;;;;;;16.64;73.09;100640.28;5049496;28;1906;-42
2022/01/04 01:47:06;;;;;;;;;;;;;;;16.63;72.75;100638.59;5044983;28;1630;-43
2022/01/04 01:49:35;;;;;;;;;;;;;;;16.63;72.75;100643.06;5047563;28;1535;-42
2022/01/04 01:52:05;;;;;;;;;;;;;;;16.61;72.89;100645.88;5050898;28;1666;-43
2022/01/04 01:54:39;;;;;;;;;;;;;;;16.62;73.00;100633.38;5048086;28;1684;-42
2022/01/04 01:57:12;;;;;;;;;;;;;;;16.62;72.72;100650.22;5052647;28;1742;-43
2022/01/04 01:59:51;;;;;;;;;;;;;;;16.61;72.83;100637.00;5049205;28;1528;-43
2022/01/04 02:02:26;;;;;;;;;;;;;;;16.78;72.64;100636.50;5051736;28;1548;-42
2022/01/04 02:04:56;;;;;;;;;;;;;;;17.27;71.53;100618.31;5052095;28;2018;-43
2022/01/04 02:07:25;;;;;;;;;;;;;;;17.89;69.21;100628.22;5053092;28;1594;-43
2022/01/04 02:10:02;;;;;;;;;;;;;;;18.07;69.44;100630.28;5051626;28;1433;-43
2022/01/04 02:12:38;;;;;;;;;;;;;;;17.96;69.33;100625.84;5052125;28;1764;-43
2022/01/04 02:15:09;;;;;;;;;;;;;;;18.21;68.99;100634.44;5053393;28;1526;-42
2022/01/04 02:17:39;;;;;;;;;;;;;;;18.16;69.46;100624.13;5050598;28;1880;-43
2022/01/04 02:20:29;;;;;;;;;;;;;;;18.27;69.00;100626.72;5053910;28;1648;-43
2022/01/04 02:22:57;;;;;;;;;;;;;;;18.27;69.32;100631.22;5052208;28;1469;-43
2022/01/04 02:25:26;;;;;;;;;;;;;;;18.42;68.09;100620.97;5051621;28;1961;-43
2022/01/04 02:27:56;;;;;;;;;;;;;;;18.39;67.93;100622.13;5053642;28;1527;-43
2022/01/04 02:30:27;;;;;;;;;;;;;;;18.54;67.30;100635.97;5054581;28;1722;-44
2022/01/04 02:32:55;;;;;;;;;;;;;;;18.48;67.57;100634.69;5056254;28;1699;-43
2022/01/04 02:35:44;;;;;;;;;;;;;;;18.51;67.75;100622.03;5054593;28;1774;-43
2022/01/04 02:38:14;;;;;;;;;;;;;;;18.46;67.74;100630.44;5050668;28;1505;-43
2022/01/04 02:40:43;;;;;;;;;;;;;;;18.55;68.45;100635.00;5055141;28;1573;-43
2022/01/04 02:43:13;;;;;;;;;;;;;;;18.70;67.99;100632.78;5051717;28;1981;-43
2022/01/04 02:45:40;;;;;;;;;;;;;;;18.56;67.76;100631.34;5050978;28;1656;-42
2022/01/04 02:48:10;;;;;;;;;;;;;;;18.53;67.52;100647.69;5056371;28;1919;-43
2022/01/04 02:50:50;;;;;;;;;;;;;;;18.62;67.11;100646.88;5051626;28;1571;-43
2022/01/04 02:53:19;;;;;;;;;;;;;;;18.60;68.19;100638.13;5055305;28;1553;-43
2022/01/04 02:55:49;;;;;;;;;;;;;;;18.60;67.41;100632.78;5053770;28;1384;-42
2022/01/04 02:58:19;;;;;;;;;;;;;;;18.56;68.52;100663.50;5053396;28;1943;-43
2022/01/04 03:03:54;;;;;;;;;;;;;;;18.67;68.08;100654.50;5043347;28;1914;-44
2022/01/04 03:06:22;;;;;;;;;;;;;;;18.56;67.82;100662.63;5044539;28;1130;-44
2022/01/04 03:08:49;;;;;;;;;;;;;;;18.77;66.96;100665.25;5049080;28;1885;-45
2022/01/04 03:11:15;;;;;;;;;;;;;;;18.74;66.92;100663.69;5044951;28;1691;-44
2022/01/04 03:13:42;;;;;;;;;;;;;;;18.91;66.48;100678.28;5046371;28;1747;-44
2022/01/04 03:16:08;;;;;;;;;;;;;;;18.80;67.82;100670.34;5046266;28;1710;-43
2022/01/04 03:18:39;;;;;;;;;;;;;;;18.80;67.68;100681.94;5044195;28;1265;-44
2022/01/04 03:21:06;;;;;;;;;;;;;;;18.73;67.67;100666.50;5046808;28;1000;-44
2022/01/04 03:23:34;;;;;;;;;;;;;;;18.69;67.20;100674.78;5046855;28;1995;-44
2022/01/04 03:26:00;;;;;;;;;;;;;;;18.80;67.77;100679.25;5045639;28;2068;-44
2022/01/04 03:28:26;;;;;;;;;;;;;;;18.77;66.85;100665.25;5041125;28;1429;-44
2022/01/04 03:30:53;;;;;;;;;;;;;;;18.68;67.53;100659.72;5046158;28;1753;-43
2022/01/04 03:33:19;;;;;;;;;;;;;;;18.77;68.00;100681.31;5039882;28;1064;-44
2022/01/04 03:35:46;;;;;;;;;;;;;;;18.72;67.03;100664.78;5040357;28;1763;-44
2022/01/04 03:38:12;;;;;;;;;;;;;;;18.93;66.93;100670.94;5045142;28;1895;-43
2022/01/04 03:40:40;;;;;;;;;;;;;;;18.99;67.33;100670.41;5044580;28;1781;-43
2022/01/04 03:43:06;;;;;;;;;;;;;;;18.99;67.12;100677.59;5045247;28;1806;-44
2022/01/04 03:45:34;;;;;;;;;;;;;;;18.90;67.43;100681.09;5042861;28;1961;-43
2022/01/04 03:48:01;;;;;;;;;;;;;;;18.87;67.37;100683.06;5048121;28;1077;-44
2022/01/04 03:50:27;;;;;;;;;;;;;;;18.90;67.36;100707.88;5048783;28;1941;-44
2022/01/04 03:52:54;;;;;;;;;;;;;;;18.91;67.30;100706.91;5043835;28;1744;-44
2022/01/04 03:55:20;;;;;;;;;;;;;;;18.47;67.43;100701.78;5044965;28;1614;-44
2022/01/04 03:57:48;;;;;;;;;;;;;;;18.03;68.90;100712.66;5044457;28;1421;-44
2022/01/04 04:00:15;;;;;;;;;;;;;;;17.80;70.42;100701.16;5041560;28;1573;-44
2022/01/04 04:02:41;;;;;;;;;;;;;;;17.66;70.29;100712.19;5043326;28;1509;-45
2022/01/04 04:05:08;;;;;;;;;;;;;;;17.54;70.40;100707.88;5039936;28;1988;-44
2022/01/04 04:07:34;;;;;;;;;;;;;;;17.44;70.50;100705.94;5048048;28;1601;-44
2022/01/04 04:10:01;;;;;;;;;;;;;;;17.38;70.89;100713.63;5034139;28;1118;-44
2022/01/04 04:12:27;;;;;;;;;;;;;;;17.31;71.07;100710.63;5041365;28;1782;-44
2022/01/04 04:14:57;;;;;;;;;;;;;;;17.28;70.98;100706.34;5046991;28;1768;-45
2022/01/04 04:17:23;;;;;;;;;;;;;;;17.25;70.96;100697.75;5039569;28;1734;-44
2022/01/04 04:19:50;;;;;;;;;;;;;;;17.18;71.24;100707.25;5048324;28;1440;-43
2022/01/04 04:22:16;;;;;;;;;;;;;;;17.17;71.15;100719.75;5041145;28;1759;-44
2022/01/04 04:24:44;;;;;;;;;;;;;;;17.13;71.38;100712.09;5045322;28;1976;-43
2022/01/04 04:27:10;;;;;;;;;;;;;;;17.05;71.27;100718.94;5043665;28;1759;-44
2022/01/04 04:29:37;;;;;;;;;;;;;;;17.03;71.71;100715.53;5044494;28;1542;-44
2022/01/04 04:32:05;;;;;;;;;;;;;;;17.01;71.48;100729.97;5044528;28;1077;-44
2022/01/04 04:34:32;;;;;;;;;;;;;;;16.95;71.52;100730.47;5036270;28;1908;-43
2022/01/04 04:36:58;;;;;;;;;;;;;;;16.95;71.79;100727.78;5045437;28;1722;-43
2022/01/04 04:39:25;;;;;;;;;;;;;;;16.95;71.72;100733.13;5044386;28;1849;-44
2022/01/04 04:41:52;;;;;;;;;;;;;;;16.92;71.54;100750.25;5043882;28;1499;-43
2022/01/04 04:44:19;;;;;;;;;;;;;;;16.91;71.85;100743.25;5042682;28;1910;-44
2022/01/04 04:46:45;;;;;;;;;;;;;;;16.89;71.69;100748.69;5046072;28;1655;-43
2022/01/04 04:49:13;;;;;;;;;;;;;;;16.85;71.74;100749.91;5036379;28;1726;-44
2022/01/04 04:51:40;;;;;;;;;;;;;;;16.84;71.98;100747.34;5042960;28;1638;-44
2022/01/04 04:54:06;;;;;;;;;;;;;;;16.82;71.83;100734.13;5042588;28;1639;-44
2022/01/04 04:56:34;;;;;;;;;;;;;;;16.82;71.94;100746.63;5044814;28;1080;-43
2022/01/04 04:59:00;;;;;;;;;;;;;;;16.76;71.95;100729.22;5042647;28;1674;-44
2022/01/04 05:01:27;;;;;;;;;;;;;;;16.78;72.29;100731.78;5044485;28;1740;-44
2022/01/04 05:03:53;;;;;;;;;;;;;;;16.76;72.13;100731.06;5033025;28;2054;-44
2022/01/04 05:06:21;;;;;;;;;;;;;;;16.77;71.44;100738.09;5044393;28;1171;-43
2022/01/04 05:08:47;;;;;;;;;;;;;;;16.74;71.54;100733.84;5037955;28;1879;-44
2022/01/04 05:11:14;;;;;;;;;;;;;;;16.73;71.87;100731.28;5044915;28;1477;-44
2022/01/04 05:13:41;;;;;;;;;;;;;;;16.70;72.28;100730.56;5044136;28;1600;-44
2022/01/04 05:16:07;;;;;;;;;;;;;;;16.72;71.55;100718.94;5045040;28;1617;-43
2022/01/04 05:18:34;;;;;;;;;;;;;;;16.66;72.10;100722.94;5044656;28;1085;-43
2022/01/04 05:21:00;;;;;;;;;;;;;;;16.63;72.18;100708.00;5040908;28;1729;-43
2022/01/04 05:23:28;;;;;;;;;;;;;;;16.65;71.64;100718.53;5047105;28;2019;-43
2022/01/04 05:25:54;;;;;;;;;;;;;;;16.66;71.98;100729.09;5042396;28;1906;-43
2022/01/04 05:28:21;;;;;;;;;;;;;;;16.65;71.82;100735.44;5042045;28;1764;-43
2022/01/04 05:30:48;;;;;;;;;;;;;;;16.65;71.53;100732.78;5046400;28;1833;-44
2022/01/04 05:33:15;;;;;;;;;;;;;;;16.63;71.29;100723.16;5041994;28;1489;-44
2022/01/04 05:35:41;;;;;;;;;;;;;;;16.63;71.97;100725.81;5036879;28;1704;-43
2022/01/04 05:38:08;;;;;;;;;;;;;;;16.64;70.73;100728.38;5046073;28;1702;-44
2022/01/04 05:40:36;;;;;;;;;;;;;;;16.61;71.40;100731.31;5042234;28;1636;-43
2022/01/04 05:43:02;;;;;;;;;;;;;;;16.59;71.13;100749.28;5042183;28;1639;-43
2022/01/04 05:45:29;;;;;;;;;;;;;;;16.65;71.53;100743.44;5043541;28;1979;-44
2022/01/04 05:47:56;;;;;;;;;;;;;;;16.90;71.04;100742.38;5048719;28;1449;-43
2022/01/04 05:50:22;;;;;;;;;;;;;;;17.37;69.86;100734.16;5050358;28;1606;-43
2022/01/04 05:52:48;;;;;;;;;;;;;;;17.83;68.31;100729.50;5051714;28;1445;-43
2022/01/04 05:55:15;;;;;;;;;;;;;;;18.20;67.55;100716.53;5050781;28;1378;-43
2022/01/04 05:57:43;;;;;;;;;;;;;;;18.48;66.96;100720.38;5049170;28;1529;-44
2022/01/04 06:00:10;;;;;;;;;;;;;;;18.68;66.28;100728.50;5046276;28;1668;-43
2022/01/04 06:02:36;;;;;;;;;;;;;;;18.86;66.31;100734.09;5049487;28;1446;-44
2022/01/04 06:05:03;;;;;;;;;;;;;;;19.16;64.97;100753.78;5048406;28;1894;-44
2022/01/04 06:07:30;;;;;;;;;;;;;;;19.11;64.18;100731.94;5056108;28;1639;-44
2022/01/04 06:09:56;;;;;;;;;;;;;;;19.14;64.51;100728.97;5045231;28;1134;-43
2022/01/04 06:15:09;;;;;;;;;;;;;;;18.32;67.58;100748.59;5047748;28;1855;-44
2022/01/04 06:17:37;;;;;;;;;;;;;;;17.84;67.82;100745.44;5050773;28;1738;-44
2022/01/04 06:20:05;;;;;;;;;;;;;;;17.56;69.19;100732.66;5050059;28;1950;-44
2022/01/04 06:22:32;;;;;;;;;;;;;;;17.34;69.71;100745.09;5046259;28;1692;-43
2022/01/04 06:24:58;;;;;;;;;;;;;;;17.23;69.93;100747.78;5044199;28;1975;-43
2022/01/04 06:27:25;;;;;;;;;;;;;;;17.25;69.78;100746.72;5039412;28;1550;-44
2022/01/04 06:29:51;;;;;;;;;;;;;;;17.37;69.55;100744.88;5046620;28;1447;-45
2022/01/04 06:32:19;;;;;;;;;;;;;;;17.51;69.20;100749.06;5042669;28;1403;-44
2022/01/04 06:34:45;;;;;;;;;;;;;;;17.63;69.27;100749.91;5037105;28;1726;-43
2022/01/04 06:37:13;;;;;;;;;;;;;;;17.73;69.02;100745.47;5045228;28;1787;-43
2022/01/04 06:39:40;;;;;;;;;;;;;;;17.95;68.50;100743.72;5045287;28;1599;-44
2022/01/04 06:42:06;;;;;;;;;;;;;;;18.03;68.05;100731.38;5043903;28;1609;-44
2022/01/04 06:44:33;;;;;;;;;;;;;;;18.12;67.98;100737.75;5044429;28;1910;-43
2022/01/04 06:47:00;;;;;;;;;;;;;;;18.23;67.00;100743.06;5047399;28;1540;-43
2022/01/04 06:49:28;;;;;;;;;;;;;;;18.39;66.64;100742.59;5042287;28;1928;-43
2022/01/04 06:51:54;;;;;;;;;;;;;;;18.48;66.54;100746.28;5046102;28;1622;-43
2022/01/04 06:54:21;;;;;;;;;;;;;;;18.59;66.37;100764.13;5045334;28;1860;-43
2022/01/04 06:56:48;;;;;;;;;;;;;;;18.72;66.01;100764.78;5048207;28;1466;-44
2022/01/04 06:59:15;;;;;;;;;;;;;;;18.82;65.63;100770.19;5044892;28;1780;-43
2022/01/04 07:01:41;;;;;;;;;;;;;;;18.87;64.78;100757.25;5047266;28;1991;-43
2022/01/04 07:04:08;;;;;;;;;;;;;;;19.00;65.35;100771.25;5038111;28;1927;-43
2022/01/04 07:06:36;;;;;;;;;;;;;;;19.05;65.46;100771.69;5044903;28;2238;-43
2022/01/04 07:09:03;;;;;;;;;;;;;;;19.16;65.32;100781.47;5042433;28;1774;-43
2022/01/04 07:11:30;;;;;;;;;;;;;;;19.21;64.68;100786.41;5045023;28;1678;-43
2022/01/04 07:13:56;;;;;;;;;;;;;;;19.30;64.70;100793.66;5045174;28;1825;-43
2022/01/04 07:16:23;;;;;;;;;;;;;;;19.34;63.92;100787.03;5045989;28;1716;-43
2022/01/04 07:18:49;;;;;;;;;;;;;;;19.38;63.38;100783.09;5044732;28;1815;-44
2022/01/04 07:21:16;;;;;;;;;;;;;;;19.43;63.72;100796.91;5047171;28;1526;-43
2022/01/04 07:23:44;;;;;;;;;;;;;;;19.48;63.73;100800.03;5042860;28;1717;-43
2022/01/04 07:26:11;;;;;;;;;;;;;;;19.57;63.80;100798.34;5048307;28;1914;-43
2022/01/04 07:28:38;;;;;;;;;;;;;;;19.55;63.34;100804.84;5040902;28;1634;-43
2022/01/04 07:31:04;;;;;;;;;;;;;;;19.56;63.34;100810.09;5047427;28;1609;-44
2022/01/04 07:33:31;;;;;;;;;;;;;;;19.51;63.44;100806.94;5038324;28;1069;-43
2022/01/04 07:35:57;;;;;;;;;;;;;;;19.42;64.67;100799.75;5045275;28;1574;-43
2022/01/04 07:38:24;;;;;;;;;;;;;;;19.33;64.28;100777.28;5048521;28;1627;-43
2022/01/04 07:40:52;;;;;;;;;;;;;;;19.41;64.17;100804.25;5038253;28;1857;-42
2022/01/04 07:43:18;;;;;;;;;;;;;;;19.35;65.07;100798.59;5044495;28;1451;-43
2022/01/04 07:45:44;;;;;;;;;;;;;;;19.26;64.64;100786.88;5044624;28;1981;-43
2022/01/04 07:48:11;;;;;;;;;;;;;;;19.22;65.13;100802.38;5040594;28;1381;-44
2022/01/04 07:50:38;;;;;;;;;;;;;;;19.21;64.29;100789.09;5044296;28;1910;-44
2022/01/04 07:53:06;;;;;;;;;;;;;;;19.28;65.37;100798.31;5041454;28;1718;-43
2022/01/04 07:55:32;;;;;;;;;;;;;;;19.35;63.63;100788.72;5049280;28;1514;-44
2022/01/04 07:58:00;;;;;;;;;;;;;;;19.21;65.12;100791.78;5045254;28;1776;-44
2022/01/04 08:00:27;;;;;;;;;;;;;;;19.25;65.14;100775.28;5045225;28;1714;-43
2022/01/04 08:02:58;;;;;;;;;;;;;;;19.24;64.85;100788.84;5048299;28;1732;-43
2022/01/04 08:05:25;;;;;;;;;;;;;;;19.37;64.90;100777.84;5042656;28;1902;-43
2022/01/04 08:07:52;;;;;;;;;;;;;;;19.28;64.70;100785.75;5037733;28;1672;-44
2022/01/04 08:10:19;;;;;;;;;;;;;;;19.42;63.85;100792.53;5045452;28;1637;-44
2022/01/04 08:12:46;;;;;;;;;;;;;;;19.25;63.62;100777.94;5044843;28;1522;-43
2022/01/04 08:15:14;;;;;;;;;;;;;;;19.51;64.07;100809.63;5038287;28;1440;-43
2022/01/04 08:17:41;;;;;;;;;;;;;;;19.38;64.57;100788.44;5049410;28;1784;-43
2022/01/04 08:20:08;;;;;;;;;;;;;;;19.43;64.15;100785.34;5049988;28;1480;-43
2022/01/04 08:22:35;;;;;;;;;;;;;;;19.67;63.92;100798.38;5048391;28;1528;-44
2022/01/04 08:25:02;;;;;;;;;;;;;;;19.66;63.61;100807.41;5048528;28;1902;-43
2022/01/04 08:27:29;;;;;;;;;;;;;;;19.72;63.87;100806.91;5047649;28;1480;-44
2022/01/04 08:29:55;;;;;;;;;;;;;;;19.73;63.02;100797.84;5046542;28;1449;-43
2022/01/04 08:32:28;;;;;;;;;;;;;;;19.71;63.99;100805.19;5049387;28;1602;-44
2022/01/04 08:34:54;;;;;;;;;;;;;;;19.70;63.47;100797.25;5050944;28;1589;-44
2022/01/04 08:37:24;;;;;;;;;;;;;;;19.59;63.48;100801.75;5047860;28;1475;-44
2022/01/04 08:39:51;;;;;;;;;;;;;;;19.51;63.49;100795.38;5042401;28;1666;-44
2022/01/04 08:45:01;;;;;;;;;;;;;;;19.56;64.23;100790.47;5050560;28;1901;-44
2022/01/04 08:47:41;;;;;;;;;;;;;;;19.65;63.18;100785.09;5051820;28;1614;-44
2022/01/04 08:50:14;;;;;;;;;;;;;;;19.63;63.45;100803.16;5046847;28;1594;-44
2022/01/04 08:52:43;;;;;;;;;;;;;;;19.50;63.84;100786.50;5043444;28;1272;-44
2022/01/04 08:55:24;;;;;;;;;;;;;;;19.52;65.15;100794.38;5045742;28;1624;-44
2022/01/04 08:57:54;;;;;;;;;;;;;;;19.50;63.80;100791.00;5051697;28;1946;-44
2022/01/04 09:00:21;;;;;;;;;;;;;;;19.52;63.48;100772.94;5049779;28;1711;-44
2022/01/04 09:03:01;;;;;;;;;;;;;;;19.49;64.09;100768.69;5052210;28;1932;-44
2022/01/04 09:05:29;;;;;;;;;;;;;;;19.60;63.91;100765.06;5041684;28;1981;-43
2022/01/04 09:07:56;;;;;;;;;;;;;;;19.65;64.72;100770.84;5048160;28;1779;-44
2022/01/04 09:10:26;;;;;;;;;;;;;;;19.57;63.81;100768.84;5037165;28;1549;-44
2022/01/04 09:13:10;;;;;;;;;;;;;;;19.38;64.52;100777.72;5047233;28;1849;-44
2022/01/04 09:18:43;;;;;;;;;;;;;;;19.39;63.45;100778.56;5043054;28;1609;-44
2022/01/04 09:18:48;;;;;;;;;;;;;;;19.33;63.37;100758.50;5035601;28;1048;-44
2022/01/04 09:21:28;;;;;;;;;;;;;;;19.37;63.99;100757.25;5043844;28;1156;-44
2022/01/04 09:24:19;;;;;;;;;;;;;;;19.30;64.60;100756.13;5033368;28;1325;-44
2022/01/04 09:26:48;;;;;;;;;;;;;;;19.24;63.37;100754.81;5033501;28;1914;-44
2022/01/04 09:29:16;;;;;;;;;;;;;;;19.29;64.79;100757.09;5040083;28;1063;-44
2022/01/04 09:31:44;;;;;;;;;;;;;;;19.29;64.73;100741.00;5049706;28;1911;-44
2022/01/04 09:34:18;;;;;;;;;;;;;;;19.31;63.56;100735.50;5035320;28;1939;-44
2022/01/04 09:36:46;;;;;;;;;;;;;;;19.32;63.97;100735.38;5048547;28;1641;-44
2022/01/04 09:39:17;;;;;;;;;;;;;;;19.34;64.06;100717.31;5047333;28;1647;-45
2022/01/04 09:41:43;;;;;;;;;;;;;;;19.34;64.64;100724.47;5033750;28;1981;-44
2022/01/04 09:44:11;;;;;;;;;;;;;;;19.44;64.00;100722.69;5043400;28;1466;-44
2022/01/04 09:46:42;;;;;;;;;;;;;;;19.41;63.89;100725.63;5036810;28;1906;-44
2022/01/04 09:49:17;;;;;;;;;;;;;;;19.40;63.04;100711.38;5051534;28;1981;-44
2022/01/04 09:51:47;;;;;;;;;;;;;;;19.41;63.54;100704.19;5035364;28;1605;-44
2022/01/04 09:54:16;;;;;;;;;;;;;;;19.42;63.74;100687.97;5034085;28;1311;-44
2022/01/04 09:56:44;;;;;;;;;;;;;;;19.43;64.05;100700.38;5041705;28;1406;-44
2022/01/04 09:59:11;;;;;;;;;;;;;;;19.34;63.94;100695.00;5050093;28;1068;-44
2022/01/04 10:01:39;;;;;;;;;;;;;;;19.38;64.65;100685.72;5038076;28;1719;-44
2022/01/04 10:04:06;;;;;;;;;;;;;;;19.34;63.46;100690.50;4994310;28;1464;-44
2022/01/04 10:06:33;;;;;;;;;;;;;;;19.36;64.21;100693.00;5006436;28;1898;-44
2022/01/04 10:09:11;;;;;;;;;;;;;;;19.36;63.50;100675.13;4998874;28;1572;-44
2022/01/04 10:11:42;;;;;;;;;;;;;;;19.39;63.33;100672.13;5003249;28;1799;-44
2022/01/04 10:14:23;;;;;;;;;;;;;;;19.37;64.21;100674.13;4995672;28;1815;-44
2022/01/04 10:16:50;;;;;;;;;;;;;;;19.36;64.27;100672.44;5003450;28;2080;-45
2022/01/04 10:19:26;;;;;;;;;;;;;;;19.36;63.44;100661.72;5004841;28;1660;-44
2022/01/04 10:22:09;;;;;;;;;;;;;;;19.43;64.09;100649.41;4999608;28;1421;-45
2022/01/04 10:24:42;;;;;;;;;;;;;;;19.63;63.22;100625.28;5004050;28;1593;-44
2022/01/04 10:27:27;;;;;;;;;;;;;;;19.35;64.57;100632.34;5001353;28;1910;-44
2022/01/04 10:30:14;;;;;;;;;;;;;;;19.18;64.74;100625.84;5010795;28;1615;-44
2022/01/04 10:32:54;;;;;;;;;;;;;;;19.22;65.06;100611.19;5016065;28;1474;-43
2022/01/04 10:35:21;;;;;;;;;;;;;;;19.05;65.84;100616.25;5007372;28;1945;-44
2022/01/04 10:37:49;;;;;;;;;;;;;;;18.97;65.07;100618.78;5009648;28;1270;-44
2022/01/04 10:40:29;;;;;;;;;;;;;;;19.09;65.14;100611.44;5008069;28;1806;-44
2022/01/04 10:43:07;;;;;;;;;;;;;;;19.04;66.16;100614.56;5008020;28;1942;-44
2022/01/04 10:45:34;;;;;;;;;;;;;;;19.02;64.96;100612.97;5011740;28;1690;-44
2022/01/04 10:48:17;;;;;;;;;;;;;;;19.05;65.81;100600.16;5016360;28;1202;-44
2022/01/04 10:50:44;;;;;;;;;;;;;;;18.88;66.03;100608.91;5006416;28;1906;-44
2022/01/04 10:53:17;;;;;;;;;;;;;;;18.88;65.60;100606.22;5004177;28;1483;-44
2022/01/04 10:55:50;;;;;;;;;;;;;;;18.87;66.76;100623.28;5006015;28;1879;-44
2022/01/04 10:58:26;;;;;;;;;;;;;;;18.82;66.06;100610.28;5007410;28;1461;-44
2022/01/04 11:00:54;;;;;;;;;;;;;;;18.81;66.84;100605.06;5003596;28;1515;-44
2022/01/04 11:03:25;;;;;;;;;;;;;;;18.81;66.23;100618.47;5026577;28;1831;-44
2022/01/04 11:05:55;;;;;;;;;;;;;;;18.79;66.84;100615.91;5048816;28;1993;-44
2022/01/04 11:08:23;;;;;;;;;;;;;;;18.88;65.61;100598.19;5053079;28;1970;-44
2022/01/04 11:10:55;;;;;;;;;;;;;;;18.86;65.53;100601.00;5041925;28;1994;-44
2022/01/04 11:13:29;;;;;;;;;;;;;;;18.83;64.16;100589.72;5050876;28;1524;-44
2022/01/04 11:15:56;;;;;;;;;;;;;;;18.77;64.95;100590.22;5053878;28;1594;-44
2022/01/04 11:21:05;;;;;;;;;;;;;;;18.79;63.59;100598.97;5053554;28;3632;-43
2022/01/04 11:23:33;;;;;;;;;;;;;;;18.77;64.60;100606.31;5053277;28;1956;-44
2022/01/04 11:26:05;;;;;;;;;;;;;;;18.71;64.14;100606.84;5049518;28;1902;-44
2022/01/04 11:28:35;;;;;;;;;;;;;;;18.73;63.04;100612.91;5043100;28;1220;-44
2022/01/04 11:31:13;;;;;;;;;;;;;;;18.80;62.52;100606.03;5048244;28;1519;-44
2022/01/04 11:33:52;;;;;;;;;;;;;;;18.89;62.84;100594.50;5055338;28;1748;-45
2022/01/04 11:39:02;;;;;;;;;;;;;;;19.06;61.45;100574.22;5046662;28;1587;-45
2022/01/04 11:41:43;;;;;;;;;;;;;;;19.13;61.13;100574.50;5051830;28;1667;-44
2022/01/04 11:44:34;;;;;;;;;;;;;;;19.21;60.51;100571.94;5048803;28;1454;-44
2022/01/04 11:47:09;;;;;;;;;;;;;;;19.26;60.12;100553.63;5035520;28;1981;-44
2022/01/04 11:49:36;;;;;;;;;;;;;;;19.28;60.07;100557.84;5035832;28;1558;-44
2022/01/04 11:52:04;;;;;;;;;;;;;;;19.31;60.39;100566.59;5050590;28;2206;-44
2022/01/04 11:54:32;;;;;;;;;;;;;;;19.26;61.02;100558.97;5045629;28;1470;-44
2022/01/04 11:57:08;;;;;;;;;;;;;;;19.18;61.07;100557.00;5044053;28;1818;-44
2022/01/04 11:59:36;;;;;;;;;;;;;;;19.17;61.26;100566.03;5045351;28;1534;-45
2022/01/04 12:02:22;;;;;;;;;;;;;;;19.33;61.24;100554.72;5050315;28;1611;-44
2022/01/04 12:04:55;;;;;;;;;;;;;;;19.32;62.48;100549.50;5053411;28;1933;-44
2022/01/04 12:07:49;;;;;;;;;;;;;;;19.24;61.68;100539.50;5034898;28;1973;-44
2022/01/04 12:10:34;;;;;;;;;;;;;;;19.17;61.92;100527.66;5014416;28;2029;-44
2022/01/04 12:13:11;;;;;;;;;;;;;;;19.11;62.98;100533.59;5042071;28;1631;-44
2022/01/04 12:15:58;;;;;;;;;;;;;;;19.01;62.80;100528.22;5047171;28;1588;-44
2022/01/04 12:18:55;;;;;;;;;;;;;;;19.04;61.77;100504.69;5052102;28;1481;-44
2022/01/04 12:21:26;;;;;;;;;;;;;;;19.04;61.53;100510.03;5034441;28;2234;-45
2022/01/04 12:23:57;;;;;;;;;;;;;;;19.04;62.06;100501.16;5041271;28;1338;-44
2022/01/04 12:26:27;;;;;;;;;;;;;;;19.05;62.45;100498.31;5040696;28;2181;-43
2022/01/04 12:29:16;;;;;;;;;;;;;;;19.02;61.50;100476.31;5042373;28;1843;-44
2022/01/04 12:31:49;;;;;;;;;;;;;;;19.01;62.20;100483.50;5041136;28;1958;-44
2022/01/04 12:34:33;;;;;;;;;;;;;;;19.00;62.31;100489.88;5035911;28;1895;-44
2022/01/04 12:37:06;;;;;;;;;;;;;;;19.01;62.79;100501.44;5049606;28;1829;-44
2022/01/04 12:39:39;;;;;;;;;;;;;;;19.02;61.85;100497.75;5051380;28;1827;-45
2022/01/04 12:42:10;;;;;;;;;;;;;;;19.00;62.23;100505.09;5049258;28;1681;-43
2022/01/04 12:44:38;;;;;;;;;;;;;;;18.99;61.89;100490.84;5035644;28;1939;-44
2022/01/04 12:47:06;;;;;;;;;;;;;;;18.92;62.77;100473.66;5043147;28;1971;-44
2022/01/04 12:49:34;;;;;;;;;;;;;;;18.91;62.74;100485.34;5048982;28;1822;-43
2022/01/04 12:52:03;;;;;;;;;;;;;;;18.92;62.71;100481.69;5045144;28;2026;-44
2022/01/04 12:54:30;;;;;;;;;;;;;;;18.89;63.24;100481.97;5043124;28;1801;-44
2022/01/04 12:56:58;;;;;;;;;;;;;;;18.93;63.05;100480.69;5034991;28;1613;-44
2022/01/04 12:59:31;;;;;;;;;;;;;;;18.94;62.03;100479.72;5042545;28;1604;-44
2022/01/04 13:01:58;;;;;;;;;;;;;;;18.90;62.95;100483.69;5044333;28;1373;-44
2022/01/04 13:04:26;;;;;;;;;;;;;;;18.88;62.61;100480.31;5036799;28;1615;-43
2022/01/04 13:06:53;;;;;;;;;;;;;;;18.85;62.22;100473.38;5044388;28;1971;-43
2022/01/04 13:09:21;;;;;;;;;;;;;;;18.84;62.22;100468.16;5047271;28;1932;-43
2022/01/04 13:11:49;;;;;;;;;;;;;;;18.82;62.31;100460.28;5042357;28;1834;-44
2022/01/04 13:14:19;;;;;;;;;;;;;;;18.81;62.79;100457.72;5042874;28;1709;-44
2022/01/04 13:16:46;;;;;;;;;;;;;;;18.81;63.39;100471.97;5043624;28;1668;-44
2022/01/04 13:19:13;;;;;;;;;;;;;;;18.79;62.81;100467.72;5035592;28;1607;-44
2022/01/04 13:21:43;;;;;;;;;;;;;;;18.81;62.84;100474.63;5047197;28;1478;-44
2022/01/04 13:24:13;;;;;;;;;;;;;;;18.83;62.50;100471.81;5034631;28;1616;-44
2022/01/04 13:26:41;;;;;;;;;;;;;;;18.82;63.19;100464.75;5048708;28;1887;-44
2022/01/04 13:29:07;;;;;;;;;;;;;;;18.85;63.19;100467.16;5040172;28;1326;-44